Map

Track Data

SID SEASON NUMBER BASIN SUBBASIN NAME ISO_TIME NATURE LAT LON WMO_WIND WMO_PRES WMO_AGENCY TRACK_TYPE DIST2LAND LANDFALL IFLAG USA_AGENCY USA_ATCF_ID USA_LAT USA_LON USA_RECORD USA_STATUS USA_WIND USA_PRES USA_SSHS USA_R34_NE USA_R34_SE USA_R34_SW USA_R34_NW USA_R50_NE USA_R50_SE USA_R50_SW USA_R50_NW USA_R64_NE USA_R64_SE USA_R64_SW USA_R64_NW USA_POCI USA_ROCI USA_RMW USA_EYE TOKYO_LAT TOKYO_LON TOKYO_GRADE TOKYO_WIND TOKYO_PRES TOKYO_R50_DIR TOKYO_R50_LONG TOKYO_R50_SHORT TOKYO_R30_DIR TOKYO_R30_LONG TOKYO_R30_SHORT TOKYO_LAND CMA_LAT CMA_LON CMA_CAT CMA_WIND CMA_PRES HKO_LAT HKO_LON HKO_CAT HKO_WIND HKO_PRES NEWDELHI_LAT NEWDELHI_LON NEWDELHI_GRADE NEWDELHI_WIND NEWDELHI_PRES NEWDELHI_CI NEWDELHI_DP NEWDELHI_POCI REUNION_LAT REUNION_LON REUNION_TYPE REUNION_WIND REUNION_PRES REUNION_TNUM REUNION_CI REUNION_RMW REUNION_R34_NE REUNION_R34_SE REUNION_R34_SW REUNION_R34_NW REUNION_R50_NE REUNION_R50_SE REUNION_R50_SW REUNION_R50_NW REUNION_R64_NE REUNION_R64_SE REUNION_R64_SW REUNION_R64_NW BOM_LAT BOM_LON BOM_TYPE BOM_WIND BOM_PRES BOM_TNUM BOM_CI BOM_RMW BOM_R34_NE BOM_R34_SE BOM_R34_SW BOM_R34_NW BOM_R50_NE BOM_R50_SE BOM_R50_SW BOM_R50_NW BOM_R64_NE BOM_R64_SE BOM_R64_SW BOM_R64_NW BOM_ROCI BOM_POCI BOM_EYE BOM_POS_METHOD BOM_PRES_METHOD NADI_LAT NADI_LON NADI_CAT NADI_WIND NADI_PRES WELLINGTON_LAT WELLINGTON_LON WELLINGTON_WIND WELLINGTON_PRES DS824_LAT DS824_LON DS824_STAGE DS824_WIND DS824_PRES TD9636_LAT TD9636_LON TD9636_STAGE TD9636_WIND TD9636_PRES TD9635_LAT TD9635_LON TD9635_WIND TD9635_PRES TD9635_ROCI NEUMANN_LAT NEUMANN_LON NEUMANN_CLASS NEUMANN_WIND NEUMANN_PRES MLC_LAT MLC_LON MLC_CLASS MLC_WIND MLC_PRES USA_GUST BOM_GUST BOM_GUST_PER REUNION_GUST REUNION_GUST_PER USA_SEAHGT USA_SEARAD_NE USA_SEARAD_SE USA_SEARAD_SW USA_SEARAD_NW STORM_SPEED STORM_DIR
1897046S12064 1897 8 SI MM NOT_NAMED 1897-02-14 18:00:00 NR -12.2000 64.0000 main 1110 1073 __________O___ -1 -12.2000 64.0000 7 13 267
1897046S12064 1897 8 SI MM NOT_NAMED 1897-02-14 21:00:00 NR -12.2278 63.3517 main 1073 1023 __________P___ -1 -12.2278 63.3517 7 13 268
1897046S12064 1897 8 SI MM NOT_NAMED 1897-02-15 00:00:00 NR -12.2538 62.7126 main 1023 991 __________P___ -1 -12.2538 62.7126 7 12 268
1897046S12064 1897 8 SI MM NOT_NAMED 1897-02-15 03:00:00 NR -12.2779 62.0922 main 991 962 __________P___ -1 -12.2779 62.0922 7 12 268
1897046S12064 1897 8 SI MM NOT_NAMED 1897-02-15 06:00:00 NR -12.3000 61.5000 main 962 941 __________O___ -1 -12.3000 61.5000 7 11 268
1897046S12064 1897 8 SI MM NOT_NAMED 1897-02-15 09:00:00 NR -12.3205 60.9438 main 937 922 __________P___ -1 -12.3205 60.9438 7 11 268
1897046S12064 1897 8 SI MM NOT_NAMED 1897-02-15 12:00:00 NR -12.3421 60.4250 main 919 896 __________P___ -1 -12.3421 60.4250 7 10 267
1897046S12064 1897 8 SI MM NOT_NAMED 1897-02-15 15:00:00 NR -12.3675 59.9437 main 893 882 __________P___ -1 -12.3675 59.9437 7 9 266
1897046S12064 1897 8 SI MM NOT_NAMED 1897-02-15 18:00:00 NR -12.4000 59.5000 main 882 874 __________O___ -1 -12.4000 59.5000 7 9 265
1897046S12064 1897 8 SI MM NOT_NAMED 1897-02-15 21:00:00 NR -12.4425 59.0769 main 874 857 __________P___ -1 -12.4425 59.0769 7 8 263
1897046S12064 1897 8 SI MM NOT_NAMED 1897-02-16 00:00:00 NR -12.4921 58.6901 main 857 853 __________P___ -1 -12.4921 58.6901 7 7 262
1897046S12064 1897 8 SI MM NOT_NAMED 1897-02-16 03:00:00 NR -12.5457 58.3332 main 852 839 __________P___ -1 -12.5457 58.3332 7 7 261
1897046S12064 1897 8 SI MM NOT_NAMED 1897-02-16 06:00:00 NR -12.6000 58.0000 main 839 830 __________O___ -1 -12.6000 58.0000 7 7 261
1897046S12064 1897 8 SI MM NOT_NAMED 1897-02-16 09:00:00 NR -12.6457 57.6743 main 830 795 __________P___ -1 -12.6457 57.6743 7 6 261
1897046S12064 1897 8 SI MM NOT_NAMED 1897-02-16 12:00:00 NR -12.6922 57.3699 main 795 765 __________P___ -1 -12.6922 57.3699 7 6 260
1897046S12064 1897 8 SI MM NOT_NAMED 1897-02-16 15:00:00 NR -12.7426 57.0806 main 765 731 __________P___ -1 -12.7426 57.0806 7 6 259
1897046S12064 1897 8 SI MM NOT_NAMED 1897-02-16 18:00:00 NR -12.8000 56.8000 main 731 696 __________O___ -1 -12.8000 56.8000 7 6 257
1897046S12064 1897 8 SI MM NOT_NAMED 1897-02-16 21:00:00 NR -12.8718 56.5097 main 696 666 __________P___ -1 -12.8718 56.5097 7 6 255
1897046S12064 1897 8 SI MM NOT_NAMED 1897-02-17 00:00:00 NR -12.9499 56.2276 main 666 642 __________P___ -1 -12.9499 56.2276 7 6 254
1897046S12064 1897 8 SI MM NOT_NAMED 1897-02-17 03:00:00 NR -13.0281 55.9566 main 642 608 __________P___ -1 -13.0281 55.9566 7 5 254
1897046S12064 1897 8 SI MM NOT_NAMED 1897-02-17 06:00:00 NR -13.1000 55.7000 main 608 583 __________O___ -1 -13.1000 55.7000 7 5 255
1897046S12064 1897 8 SI MM NOT_NAMED 1897-02-17 09:00:00 NR -13.1571 55.4606 main 583 554 __________P___ -1 -13.1571 55.4606 7 5 257
1897046S12064 1897 8 SI MM NOT_NAMED 1897-02-17 12:00:00 NR -13.2073 55.2349 main 554 529 __________P___ -1 -13.2073 55.2349 7 4 257
1897046S12064 1897 8 SI MM NOT_NAMED 1897-02-17 15:00:00 NR -13.2540 55.0168 main 529 510 __________P___ -1 -13.2540 55.0168 7 4 258
1897046S12064 1897 8 SI MM NOT_NAMED 1897-02-17 18:00:00 NR -13.3000 54.8000 main 510 489 __________O___ -1 -13.3000 54.8000 7 4 258
1897046S12064 1897 8 SI MM NOT_NAMED 1897-02-17 21:00:00 NR -13.3418 54.5749 main 489 466 __________P___ -1 -13.3418 54.5749 7 4 259
1897046S12064 1897 8 SI MM NOT_NAMED 1897-02-18 00:00:00 NR -13.3849 54.3499 main 456 434 __________P___ -1 -13.3849 54.3499 7 4 258
1897046S12064 1897 8 SI MM NOT_NAMED 1897-02-18 03:00:00 NR -13.4356 54.1249 main 434 412 __________P___ -1 -13.4356 54.1249 7 5 255
1897046S12064 1897 8 SI MM NOT_NAMED 1897-02-18 06:00:00 NR -13.5000 53.9000 main 412 388 __________O___ -1 -13.5000 53.9000 7 5 252
1897046S12064 1897 8 SI MM NOT_NAMED 1897-02-18 09:00:00 NR -13.5775 53.6709 main 388 364 __________P___ -1 -13.5775 53.6709 7 5 249
1897046S12064 1897 8 SI MM NOT_NAMED 1897-02-18 12:00:00 NR -13.6700 53.4424 main 354 330 __________P___ -1 -13.6700 53.4424 7 5 246
1897046S12064 1897 8 SI MM NOT_NAMED 1897-02-18 15:00:00 NR -13.7775 53.2178 main 330 306 __________P___ -1 -13.7775 53.2178 7 5 242
1897046S12064 1897 8 SI MM NOT_NAMED 1897-02-18 18:00:00 NR -13.9000 53.0000 main 306 281 __________O___ -1 -13.9000 53.0000 7 5 241
1897046S12064 1897 8 SI MM NOT_NAMED 1897-02-18 21:00:00 NR -14.0153 52.7846 main 281 257 __________P___ -1 -14.0153 52.7846 7 5 239
1897046S12064 1897 8 SI MM NOT_NAMED 1897-02-19 00:00:00 NR -14.1475 52.5773 main 257 227 __________P___ -1 -14.1475 52.5773 7 5 233
1897046S12064 1897 8 SI MM NOT_NAMED 1897-02-19 03:00:00 NR -14.3059 52.3814 main 227 198 __________P___ -1 -14.3059 52.3814 7 5 226
1897046S12064 1897 8 SI MM NOT_NAMED 1897-02-19 06:00:00 NR -14.5000 52.2000 main 198 170 __________O___ -1 -14.5000 52.2000 7 5 219
1897046S12064 1897 8 SI MM NOT_NAMED 1897-02-19 09:00:00 NR -14.7269 52.0235 main 170 152 __________P___ -1 -14.7269 52.0235 7 6 214
1897046S12064 1897 8 SI MM NOT_NAMED 1897-02-19 12:00:00 NR -14.9900 51.8625 main 152 128 __________P___ -1 -14.9900 51.8625 7 6 208
1897046S12064 1897 8 SI MM NOT_NAMED 1897-02-19 15:00:00 NR -15.2831 51.7203 main 128 118 __________P___ -1 -15.2831 51.7203 7 7 203
1897046S12064 1897 8 SI MM NOT_NAMED 1897-02-19 18:00:00 NR -15.6000 51.6000 main 120 116 __________O___ -1 -15.6000 51.6000 7 7 198
1897046S12064 1897 8 SI MM NOT_NAMED 1897-02-19 21:00:00 NR -15.9365 51.4993 main 120 120 __________P___ -1 -15.9365 51.4993 7 7 194
1897046S12064 1897 8 SI MM NOT_NAMED 1897-02-20 00:00:00 NR -16.2924 51.4199 main 130 130 __________P___ -1 -16.2924 51.4199 7 7 191
1897046S12064 1897 8 SI MM NOT_NAMED 1897-02-20 03:00:00 NR -16.6522 51.3555 main 150 141 __________P___ -1 -16.6522 51.3555 7 7 189
1897046S12064 1897 8 SI MM NOT_NAMED 1897-02-20 06:00:00 NR -17.0000 51.3000 main 161 155 __________O___ -1 -17.0000 51.3000 7 7 190
1897046S12064 1897 8 SI MM NOT_NAMED 1897-02-20 09:00:00 NR -17.3184 51.2306 main 159 159 __________P___ -1 -17.3184 51.2306 7 6 192
1897046S12064 1897 8 SI MM NOT_NAMED 1897-02-20 12:00:00 NR -17.6225 51.1701 main 173 169 __________P___ -1 -17.6225 51.1701 7 6 190
1897046S12064 1897 8 SI MM NOT_NAMED 1897-02-20 15:00:00 NR -17.9153 51.1244 main 170 170 __________P___ -1 -17.9153 51.1244 7 6 187
1897046S12064 1897 8 SI MM NOT_NAMED 1897-02-20 18:00:00 NR -18.2000 51.1000 main 178 178 __________O___ -1 -18.2000 51.1000 7 5 185
1897046S12064 1897 8 SI MM NOT_NAMED 1897-02-20 21:00:00 NR -18.4172 51.0756 main 180 180 __________P___ -1 -18.4172 51.0756 7 4 0
1897046S12064 1897 8 SI MM NOT_NAMED 1897-02-21 00:00:00 NR -18.6374 51.0761 main 184 184 __________P___ -1 -18.6374 51.0761 7 5 175
1897046S12064 1897 8 SI MM NOT_NAMED 1897-02-21 03:00:00 NR -18.9140 51.1135 main 195 195 __________P___ -1 -18.9140 51.1135 7 7 170
1897046S12064 1897 8 SI MM NOT_NAMED 1897-02-21 06:00:00 NR -19.3000 51.2000 main 220 220 __________O___ -1 -19.3000 51.2000 7 10 168
1897046S12064 1897 8 SI MM NOT_NAMED 1897-02-21 09:00:00 NR -19.9006 51.3328 main 251 251 __________P___ -1 -19.9006 51.3328 7 13 167
1897046S12064 1897 8 SI MM NOT_NAMED 1897-02-21 12:00:00 NR -20.6050 51.5166 main 289 289 __________P___ -1 -20.6050 51.5166 7 15 165
1897046S12064 1897 8 SI MM NOT_NAMED 1897-02-21 15:00:00 NR -21.3319 51.7423 main 334 334 __________P___ -1 -21.3319 51.7423 7 15 162
1897046S12064 1897 8 SI MM NOT_NAMED 1897-02-21 18:00:00 NR -22.0000 52.0000 main 345 337 __________O___ -1 -22.0000 52.0000 7 13 158
1897046S12064 1897 8 SI MM NOT_NAMED 1897-02-21 21:00:00 NR -22.5048 52.2598 main 337 333 __________P___ -1 -22.5048 52.2598 7 11 152
1897046S12064 1897 8 SI MM NOT_NAMED 1897-02-22 00:00:00 NR -22.9396 52.5486 main 339 333 __________P___ -1 -22.9396 52.5486 7 10 146
1897046S12064 1897 8 SI MM NOT_NAMED 1897-02-22 03:00:00 NR -23.3297 52.8630 main 333 333 __________P___ -1 -23.3297 52.8630 7 10 142
1897046S12064 1897 8 SI MM NOT_NAMED 1897-02-22 06:00:00 NR -23.7000 53.2000 main 344 344 __________O___ -1 -23.7000 53.2000 7 10 140
1897046S12064 1897 8 SI MM NOT_NAMED 1897-02-22 09:00:00 NR -24.0893 53.5539 main 358 358 __________P___ -1 -24.0893 53.5539 7 10 139
1897046S12064 1897 8 SI MM NOT_NAMED 1897-02-22 12:00:00 NR -24.4649 53.9282 main 385 381 __________P___ -1 -24.4649 53.9282 7 10 137
1897046S12064 1897 8 SI MM NOT_NAMED 1897-02-22 15:00:00 NR -24.8330 54.3134 main 402 402 __________P___ -1 -24.8330 54.3134 7 10 136
1897046S12064 1897 8 SI MM NOT_NAMED 1897-02-22 18:00:00 NR -25.2000 54.7000 main 434 434 __________O___ -1 -25.2000 54.7000 7 10 137
1897046S12064 1897 8 SI MM NOT_NAMED 1897-02-22 21:00:00 NR -25.5706 55.0718 main 472 472 __________P___ -1 -25.5706 55.0718 7 10 138
1897046S12064 1897 8 SI MM NOT_NAMED 1897-02-23 00:00:00 NR -25.9420 55.4438 main 503 503 __________P___ -1 -25.9420 55.4438 7 10 138
1897046S12064 1897 8 SI MM NOT_NAMED 1897-02-23 03:00:00 NR -26.3174 55.8188 main 548 548 __________P___ -1 -26.3174 55.8188 7 10 138
1897046S12064 1897 8 SI MM NOT_NAMED 1897-02-23 06:00:00 NR -26.7000 56.2000 main 595 595 __________O___ -1 -26.7000 56.2000 7 10 138
1897046S12064 1897 8 SI MM NOT_NAMED 1897-02-23 09:00:00 NR -27.0884 56.5856 main 644 644 __________P___ -1 -27.0884 56.5856 7 10 139
1897046S12064 1897 8 SI MM NOT_NAMED 1897-02-23 12:00:00 NR -27.4844 56.9789 main 696 696 __________P___ -1 -27.4844 56.9789 7 11 139
1897046S12064 1897 8 SI MM NOT_NAMED 1897-02-23 15:00:00 NR -27.8883 57.3827 main 748 748 __________P___ -1 -27.8883 57.3827 7 11 138
1897046S12064 1897 8 SI MM NOT_NAMED 1897-02-23 18:00:00 NR -28.3000 57.8000 main 802 802 __________O___ -1 -28.3000 57.8000 7 11 137
1897046S12064 1897 8 SI MM NOT_NAMED 1897-02-23 21:00:00 NR -28.6929 58.2215 main 856 856 __________P___ -1 -28.6929 58.2215 7 11 137
1897046S12064 1897 8 SI MM NOT_NAMED 1897-02-24 00:00:00 NR -29.0966 58.6583 main 914 914 __________P___ -1 -29.0966 58.6583 7 11 137
1897046S12064 1897 8 SI MM NOT_NAMED 1897-02-24 03:00:00 NR -29.5271 59.1158 main 970 970 __________P___ -1 -29.5271 59.1158 7 12 138
1897046S12064 1897 8 SI MM NOT_NAMED 1897-02-24 06:00:00 NR -30.0000 59.6000 main 1040 1040 __________O___ -1 -30.0000 59.6000 7 13 138
1897046S12064 1897 8 SI MM NOT_NAMED 1897-02-24 09:00:00 NR -30.4955 60.1269 main 1111 1111 __________P___ -1 -30.4955 60.1269 7 14 138
1897046S12064 1897 8 SI MM NOT_NAMED 1897-02-24 12:00:00 NR -31.0378 60.6802 main 1186 1186 __________P___ -1 -31.0378 60.6802 7 15 140
1897046S12064 1897 8 SI MM NOT_NAMED 1897-02-24 15:00:00 NR -31.6361 61.2434 main 1267 1267 __________P___ -1 -31.6361 61.2434 7 16 143
1897046S12064 1897 8 SI MM NOT_NAMED 1897-02-24 18:00:00 NR -32.3000 61.8000 main 1362 1362 __________O___ -1 -32.3000 61.8000 7 17 147
1897046S12064 1897 8 SI MM NOT_NAMED 1897-02-24 21:00:00 NR -33.0347 62.3378 main 1453 1453 __________P___ -1 -33.0347 62.3378 7 18 150
1897046S12064 1897 8 SI MM NOT_NAMED 1897-02-25 00:00:00 NR -33.8260 62.8614 main 1558 1558 __________P___ -1 -33.8260 62.8614 7 18 152
1897046S12064 1897 8 SI MM NOT_NAMED 1897-02-25 03:00:00 NR -34.6544 63.3794 main 1631 1534 __________P___ -1 -34.6544 63.3794 7 19 153
1897046S12064 1897 8 SI MM NOT_NAMED 1897-02-25 06:00:00 NR -35.5000 63.9000 main 1534 __________O___ -1 -35.5000 63.9000 7 19 153

About IBTrACS Database

This database is a web-friendly format of International Best Track Archive for Climate Stewardship (IBTrACS), a global best track data archive curated by NOAA dating back to 1842.

Updated: 2021-11-26